sensor_id;sensor_type;location;lat;lon;timestamp;pressure;altitude;pressure_sealevel;temperature;humidity
79150;BME280;68563;45.644;13.782;2023-06-26T00:02:13;100954.56;;;26.63;35.68
79150;BME280;68563;45.644;13.782;2023-06-26T00:04:38;100958.53;;;26.68;35.45
79150;BME280;68563;45.644;13.782;2023-06-26T00:07:04;100979.19;;;26.65;35.29
79150;BME280;68563;45.644;13.782;2023-06-26T00:09:30;100967.25;;;26.59;35.35
79150;BME280;68563;45.644;13.782;2023-06-26T00:11:55;100946.00;;;26.70;35.17
79150;BME280;68563;45.644;13.782;2023-06-26T00:14:21;100956.31;;;26.75;35.33
79150;BME280;68563;45.644;13.782;2023-06-26T00:16:47;100957.09;;;26.64;35.00
79150;BME280;68563;45.644;13.782;2023-06-26T00:19:15;100984.28;;;26.68;35.27
79150;BME280;68563;45.644;13.782;2023-06-26T00:21:40;100963.84;;;26.68;35.32
79150;BME280;68563;45.644;13.782;2023-06-26T00:24:12;100947.09;;;26.68;35.30
79150;BME280;68563;45.644;13.782;2023-06-26T00:26:37;100972.44;;;26.60;35.40
79150;BME280;68563;45.644;13.782;2023-06-26T00:29:03;100954.78;;;26.59;35.53
79150;BME280;68563;45.644;13.782;2023-06-26T00:31:28;100952.75;;;26.63;35.16
79150;BME280;68563;45.644;13.782;2023-06-26T00:33:53;100965.88;;;26.53;35.62
79150;BME280;68563;45.644;13.782;2023-06-26T00:36:19;100990.13;;;26.49;35.70
79150;BME280;68563;45.644;13.782;2023-06-26T00:38:44;100961.88;;;26.48;35.65
79150;BME280;68563;45.644;13.782;2023-06-26T00:41:09;100962.47;;;26.40;36.04
79150;BME280;68563;45.644;13.782;2023-06-26T00:43:38;100954.00;;;26.35;35.99
79150;BME280;68563;45.644;13.782;2023-06-26T00:46:04;100965.25;;;26.38;35.83
79150;BME280;68563;45.644;13.782;2023-06-26T00:48:30;100961.13;;;26.34;36.06
79150;BME280;68563;45.644;13.782;2023-06-26T00:50:56;100950.13;;;26.27;36.09
79150;BME280;68563;45.644;13.782;2023-06-26T00:53:22;100945.75;;;26.15;36.37
79150;BME280;68563;45.644;13.782;2023-06-26T00:55:47;100982.19;;;26.24;36.08
79150;BME280;68563;45.644;13.782;2023-06-26T00:58:13;100955.91;;;26.21;36.15
79150;BME280;68563;45.644;13.782;2023-06-26T01:00:39;100943.84;;;26.28;36.03
79150;BME280;68563;45.644;13.782;2023-06-26T01:03:04;100943.59;;;26.20;36.04
79150;BME280;68563;45.644;13.782;2023-06-26T01:05:29;100938.94;;;26.11;36.09
79150;BME280;68563;45.644;13.782;2023-06-26T01:07:57;100952.25;;;26.22;35.83
79150;BME280;68563;45.644;13.782;2023-06-26T01:10:23;100946.94;;;26.22;35.98
79150;BME280;68563;45.644;13.782;2023-06-26T01:12:49;100953.25;;;26.21;35.97
79150;BME280;68563;45.644;13.782;2023-06-26T01:15:15;100939.72;;;26.24;35.98
79150;BME280;68563;45.644;13.782;2023-06-26T01:17:40;100955.44;;;26.27;35.80
79150;BME280;68563;45.644;13.782;2023-06-26T01:20:10;100954.34;;;26.30;35.87
79150;BME280;68563;45.644;13.782;2023-06-26T01:28:04;100947.94;;;26.21;35.90
79150;BME280;68563;45.644;13.782;2023-06-26T01:30:31;100938.13;;;26.10;35.84
79150;BME280;68563;45.644;13.782;2023-06-26T01:32:58;100949.81;;;26.08;36.25
79150;BME280;68563;45.644;13.782;2023-06-26T01:35:25;100939.81;;;26.11;35.95
79150;BME280;68563;45.644;13.782;2023-06-26T01:37:50;100943.91;;;26.16;36.18
79150;BME280;68563;45.644;13.782;2023-06-26T01:40:16;100936.56;;;26.19;36.07
79150;BME280;68563;45.644;13.782;2023-06-26T01:42:41;100909.88;;;26.09;36.36
79150;BME280;68563;45.644;13.782;2023-06-26T01:45:21;100929.28;;;26.10;36.21
79150;BME280;68563;45.644;13.782;2023-06-26T01:47:50;100923.34;;;26.06;36.16
79150;BME280;68563;45.644;13.782;2023-06-26T01:50:18;100929.53;;;26.07;36.17
79150;BME280;68563;45.644;13.782;2023-06-26T01:53:24;100926.41;;;26.13;36.41
79150;BME280;68563;45.644;13.782;2023-06-26T01:55:53;100926.41;;;26.13;36.24
79150;BME280;68563;45.644;13.782;2023-06-26T01:58:22;100914.09;;;26.12;36.20
79150;BME280;68563;45.644;13.782;2023-06-26T02:00:49;100914.75;;;26.03;36.53
79150;BME280;68563;45.644;13.782;2023-06-26T02:03:14;100916.69;;;26.01;36.28
79150;BME280;68563;45.644;13.782;2023-06-26T02:05:40;100915.94;;;25.99;36.35
79150;BME280;68563;45.644;13.782;2023-06-26T02:08:08;100915.00;;;26.00;36.65
79150;BME280;68563;45.644;13.782;2023-06-26T02:10:34;100914.13;;;25.99;36.60
79150;BME280;68563;45.644;13.782;2023-06-26T02:13:00;100911.19;;;25.91;36.68
79150;BME280;68563;45.644;13.782;2023-06-26T02:15:26;100920.03;;;25.91;36.57
79150;BME280;68563;45.644;13.782;2023-06-26T02:17:51;100903.03;;;25.94;36.76
79150;BME280;68563;45.644;13.782;2023-06-26T02:20:16;100925.78;;;25.85;36.84
79150;BME280;68563;45.644;13.782;2023-06-26T02:22:42;100925.31;;;25.91;36.87
79150;BME280;68563;45.644;13.782;2023-06-26T02:25:09;100926.06;;;25.93;36.46
79150;BME280;68563;45.644;13.782;2023-06-26T02:27:34;100920.75;;;25.93;36.34
79150;BME280;68563;45.644;13.782;2023-06-26T02:30:00;100915.09;;;25.98;36.20
79150;BME280;68563;45.644;13.782;2023-06-26T02:32:25;100922.97;;;26.00;36.35
79150;BME280;68563;45.644;13.782;2023-06-26T02:34:50;100919.78;;;25.94;36.33
79150;BME280;68563;45.644;13.782;2023-06-26T02:37:19;100911.09;;;25.92;36.16
79150;BME280;68563;45.644;13.782;2023-06-26T02:39:45;100924.25;;;25.94;36.49
79150;BME280;68563;45.644;13.782;2023-06-26T02:42:10;100910.97;;;25.94;36.13
79150;BME280;68563;45.644;13.782;2023-06-26T02:44:35;100919.78;;;25.94;36.18
79150;BME280;68563;45.644;13.782;2023-06-26T02:47:02;100929.88;;;25.89;36.13
79150;BME280;68563;45.644;13.782;2023-06-26T02:49:28;100919.28;;;25.89;36.41
79150;BME280;68563;45.644;13.782;2023-06-26T02:51:53;100913.03;;;25.90;36.30
79150;BME280;68563;45.644;13.782;2023-06-26T02:54:19;100942.38;;;26.00;36.07
79150;BME280;68563;45.644;13.782;2023-06-26T02:56:44;100916.63;;;25.89;36.42
79150;BME280;68563;45.644;13.782;2023-06-26T02:59:10;100923.63;;;25.90;36.18
79150;BME280;68563;45.644;13.782;2023-06-26T03:01:35;100922.66;;;25.91;36.42
79150;BME280;68563;45.644;13.782;2023-06-26T03:04:00;100919.16;;;25.91;36.37
79150;BME280;68563;45.644;13.782;2023-06-26T03:06:29;100927.81;;;25.82;36.34
79150;BME280;68563;45.644;13.782;2023-06-26T03:08:54;100930.81;;;25.77;36.43
79150;BME280;68563;45.644;13.782;2023-06-26T03:11:20;100938.56;;;25.80;36.56
79150;BME280;68563;45.644;13.782;2023-06-26T03:13:45;100927.81;;;25.82;36.68
79150;BME280;68563;45.644;13.782;2023-06-26T03:16:11;100931.84;;;25.87;36.43
79150;BME280;68563;45.644;13.782;2023-06-26T03:18:36;100925.16;;;25.82;36.66
79150;BME280;68563;45.644;13.782;2023-06-26T03:21:02;100933.75;;;25.85;36.92
79150;BME280;68563;45.644;13.782;2023-06-26T03:23:27;100924.28;;;25.81;36.62
79150;BME280;68563;45.644;13.782;2023-06-26T03:25:53;100928.28;;;25.75;36.67
79150;BME280;68563;45.644;13.782;2023-06-26T03:28:18;100922.00;;;25.76;36.88
79150;BME280;68563;45.644;13.782;2023-06-26T03:30:44;100931.00;;;25.74;36.79
79150;BME280;68563;45.644;13.782;2023-06-26T03:33:10;100932.31;;;25.68;37.32
79150;BME280;68563;45.644;13.782;2023-06-26T03:35:35;100942.81;;;25.70;36.86
79150;BME280;68563;45.644;13.782;2023-06-26T03:38:01;100926.56;;;25.74;37.03
79150;BME280;68563;45.644;13.782;2023-06-26T03:40:27;100944.41;;;25.72;37.43
79150;BME280;68563;45.644;13.782;2023-06-26T03:42:52;100936.13;;;25.64;37.98
79150;BME280;68563;45.644;13.782;2023-06-26T03:45:18;100940.38;;;25.67;38.14
79150;BME280;68563;45.644;13.782;2023-06-26T03:47:44;100942.31;;;25.64;38.28
79150;BME280;68563;45.644;13.782;2023-06-26T03:50:12;100936.81;;;25.55;38.27
79150;BME280;68563;45.644;13.782;2023-06-26T03:52:37;100949.22;;;25.54;38.59
79150;BME280;68563;45.644;13.782;2023-06-26T03:55:03;100962.47;;;25.54;38.41
79150;BME280;68563;45.644;13.782;2023-06-26T03:57:28;100943.19;;;25.52;37.54
79150;BME280;68563;45.644;13.782;2023-06-26T03:59:54;100945.16;;;25.61;37.49
79150;BME280;68563;45.644;13.782;2023-06-26T04:02:19;100947.63;;;25.64;36.93
79150;BME280;68563;45.644;13.782;2023-06-26T04:04:45;100948.56;;;25.63;36.99
79150;BME280;68563;45.644;13.782;2023-06-26T04:07:10;100948.88;;;25.72;38.12
79150;BME280;68563;45.644;13.782;2023-06-26T04:09:35;100953.94;;;25.75;38.16
79150;BME280;68563;45.644;13.782;2023-06-26T04:12:01;100958.16;;;25.77;37.84
79150;BME280;68563;45.644;13.782;2023-06-26T04:14:27;100957.00;;;25.82;37.04
79150;BME280;68563;45.644;13.782;2023-06-26T04:16:52;100952.44;;;25.84;37.02
79150;BME280;68563;45.644;13.782;2023-06-26T04:19:18;100949.88;;;25.82;37.05
79150;BME280;68563;45.644;13.782;2023-06-26T04:21:43;100957.91;;;25.93;36.88
79150;BME280;68563;45.644;13.782;2023-06-26T04:24:09;100951.19;;;26.01;36.90
79150;BME280;68563;45.644;13.782;2023-06-26T04:26:34;100954.34;;;26.06;36.94
79150;BME280;68563;45.644;13.782;2023-06-26T04:29:00;100950.81;;;26.05;37.20
79150;BME280;68563;45.644;13.782;2023-06-26T04:31:26;100955.63;;;26.13;37.18
79150;BME280;68563;45.644;13.782;2023-06-26T04:33:51;100954.19;;;26.20;36.97
79150;BME280;68563;45.644;13.782;2023-06-26T04:36:20;100958.81;;;26.30;37.09
79150;BME280;68563;45.644;13.782;2023-06-26T04:38:45;100965.34;;;26.37;37.26
79150;BME280;68563;45.644;13.782;2023-06-26T04:41:11;100963.22;;;26.42;37.22
79150;BME280;68563;45.644;13.782;2023-06-26T04:43:36;100966.09;;;26.50;37.19
79150;BME280;68563;45.644;13.782;2023-06-26T04:46:02;100967.34;;;26.57;37.17
79150;BME280;68563;45.644;13.782;2023-06-26T04:48:28;100974.13;;;26.62;36.90
79150;BME280;68563;45.644;13.782;2023-06-26T04:50:54;100964.94;;;26.66;36.62
79150;BME280;68563;45.644;13.782;2023-06-26T04:53:21;100977.56;;;26.75;36.85
79150;BME280;68563;45.644;13.782;2023-06-26T04:55:48;100973.81;;;26.78;36.88
79150;BME280;68563;45.644;13.782;2023-06-26T04:58:14;100976.25;;;26.81;36.82
79150;BME280;68563;45.644;13.782;2023-06-26T05:00:39;100970.81;;;26.82;36.96
79150;BME280;68563;45.644;13.782;2023-06-26T05:03:09;100966.25;;;26.84;36.55
79150;BME280;68563;45.644;13.782;2023-06-26T05:05:35;100966.47;;;26.92;36.76
79150;BME280;68563;45.644;13.782;2023-06-26T05:08:13;100977.22;;;27.02;36.53
79150;BME280;68563;45.644;13.782;2023-06-26T05:10:38;100970.13;;;27.03;35.88
79150;BME280;68563;45.644;13.782;2023-06-26T05:13:04;100969.03;;;27.05;35.61
79150;BME280;68563;45.644;13.782;2023-06-26T05:15:29;100970.38;;;27.11;35.88
79150;BME280;68563;45.644;13.782;2023-06-26T05:17:54;100964.91;;;27.13;35.66
79150;BME280;68563;45.644;13.782;2023-06-26T05:20:20;100959.13;;;27.19;35.47
79150;BME280;68563;45.644;13.782;2023-06-26T05:22:45;100963.81;;;27.27;35.32
79150;BME280;68563;45.644;13.782;2023-06-26T05:25:12;100961.66;;;27.32;35.28
79150;BME280;68563;45.644;13.782;2023-06-26T05:27:38;100950.28;;;27.30;35.12
79150;BME280;68563;45.644;13.782;2023-06-26T05:30:04;100962.63;;;27.31;34.80
79150;BME280;68563;45.644;13.782;2023-06-26T05:32:30;100965.28;;;27.31;34.83
79150;BME280;68563;45.644;13.782;2023-06-26T05:34:57;100963.34;;;27.33;34.98
79150;BME280;68563;45.644;13.782;2023-06-26T05:37:22;100962.00;;;27.38;34.94
79150;BME280;68563;45.644;13.782;2023-06-26T05:39:48;100961.53;;;27.45;34.76
79150;BME280;68563;45.644;13.782;2023-06-26T05:42:14;100965.03;;;27.57;34.88
79150;BME280;68563;45.644;13.782;2023-06-26T05:44:40;100966.22;;;27.64;35.07
79150;BME280;68563;45.644;13.782;2023-06-26T05:47:05;100968.88;;;27.75;34.42
79150;BME280;68563;45.644;13.782;2023-06-26T05:49:31;100960.41;;;27.81;34.34
79150;BME280;68563;45.644;13.782;2023-06-26T05:51:56;100959.31;;;27.84;34.44
79150;BME280;68563;45.644;13.782;2023-06-26T05:54:23;100957.84;;;27.91;34.23
79150;BME280;68563;45.644;13.782;2023-06-26T05:56:55;100965.53;;;27.94;34.29
79150;BME280;68563;45.644;13.782;2023-06-26T05:59:22;100972.78;;;28.03;34.37
79150;BME280;68563;45.644;13.782;2023-06-26T06:01:47;100962.97;;;28.04;34.12
79150;BME280;68563;45.644;13.782;2023-06-26T06:04:13;100964.47;;;28.08;34.17
79150;BME280;68563;45.644;13.782;2023-06-26T06:06:38;100971.19;;;28.12;34.11
79150;BME280;68563;45.644;13.782;2023-06-26T06:09:04;100969.88;;;28.18;34.17
79150;BME280;68563;45.644;13.782;2023-06-26T06:11:29;100966.22;;;28.19;34.04
79150;BME280;68563;45.644;13.782;2023-06-26T06:13:54;100970.31;;;28.23;34.09
79150;BME280;68563;45.644;13.782;2023-06-26T06:16:20;100971.25;;;28.33;34.14
79150;BME280;68563;45.644;13.782;2023-06-26T06:18:45;100968.44;;;28.35;33.92
79150;BME280;68563;45.644;13.782;2023-06-26T06:21:11;100957.94;;;28.33;33.81
79150;BME280;68563;45.644;13.782;2023-06-26T06:23:36;100973.13;;;28.43;33.52
79150;BME280;68563;45.644;13.782;2023-06-26T06:26:03;100972.00;;;28.45;33.25
79150;BME280;68563;45.644;13.782;2023-06-26T06:28:28;100963.06;;;28.46;33.42
79150;BME280;68563;45.644;13.782;2023-06-26T06:30:54;100968.34;;;28.58;33.59
79150;BME280;68563;45.644;13.782;2023-06-26T06:33:19;100972.28;;;28.63;33.25
79150;BME280;68563;45.644;13.782;2023-06-26T06:35:45;100974.69;;;28.66;33.50
79150;BME280;68563;45.644;13.782;2023-06-26T06:38:10;100974.78;;;28.76;33.34
79150;BME280;68563;45.644;13.782;2023-06-26T06:40:36;100964.50;;;28.72;33.09
79150;BME280;68563;45.644;13.782;2023-06-26T06:43:01;100964.13;;;28.76;33.05
79150;BME280;68563;45.644;13.782;2023-06-26T06:45:26;100970.63;;;28.84;33.18
79150;BME280;68563;45.644;13.782;2023-06-26T06:47:52;100967.41;;;28.90;32.92
79150;BME280;68563;45.644;13.782;2023-06-26T06:50:17;100964.50;;;28.93;33.08
79150;BME280;68563;45.644;13.782;2023-06-26T06:52:43;100967.84;;;28.95;32.98
79150;BME280;68563;45.644;13.782;2023-06-26T06:55:09;100961.03;;;29.02;32.97
79150;BME280;68563;45.644;13.782;2023-06-26T06:57:39;100955.25;;;28.97;33.14
79150;BME280;68563;45.644;13.782;2023-06-26T07:00:09;100961.31;;;28.99;33.32
79150;BME280;68563;45.644;13.782;2023-06-26T07:02:36;100962.41;;;28.96;33.88
79150;BME280;68563;45.644;13.782;2023-06-26T07:05:02;100963.97;;;28.99;34.71
79150;BME280;68563;45.644;13.782;2023-06-26T07:07:30;100958.16;;;28.94;34.79
79150;BME280;68563;45.644;13.782;2023-06-26T07:12:33;100950.69;;;28.88;36.44
79150;BME280;68563;45.644;13.782;2023-06-26T07:15:02;100963.50;;;28.94;36.79
79150;BME280;68563;45.644;13.782;2023-06-26T07:17:30;100964.50;;;28.93;37.46
79150;BME280;68563;45.644;13.782;2023-06-26T07:19:55;100961.13;;;28.91;38.30
79150;BME280;68563;45.644;13.782;2023-06-26T07:22:21;100963.50;;;28.94;38.50
79150;BME280;68563;45.644;13.782;2023-06-26T07:24:47;100959.16;;;28.93;38.45
79150;BME280;68563;45.644;13.782;2023-06-26T07:27:16;100969.13;;;28.91;38.46
79150;BME280;68563;45.644;13.782;2023-06-26T07:29:43;100962.22;;;28.88;39.45
79150;BME280;68563;45.644;13.782;2023-06-26T07:32:08;100959.09;;;28.83;40.14
79150;BME280;68563;45.644;13.782;2023-06-26T07:34:34;100952.50;;;28.77;40.34
79150;BME280;68563;45.644;13.782;2023-06-26T07:37:00;100959.09;;;28.83;40.20
79150;BME280;68563;45.644;13.782;2023-06-26T07:39:25;100959.38;;;28.80;39.86
79150;BME280;68563;45.644;13.782;2023-06-26T07:41:51;100954.88;;;28.80;40.54
79150;BME280;68563;45.644;13.782;2023-06-26T07:44:16;100949.09;;;28.75;40.82
79150;BME280;68563;45.644;13.782;2023-06-26T07:46:42;100954.34;;;28.87;40.26
79150;BME280;68563;45.644;13.782;2023-06-26T07:49:07;100960.97;;;28.92;39.77
79150;BME280;68563;45.644;13.782;2023-06-26T07:51:32;100961.84;;;28.93;39.77
79150;BME280;68563;45.644;13.782;2023-06-26T07:53:58;100965.72;;;28.89;39.30
79150;BME280;68563;45.644;13.782;2023-06-26T07:56:23;100970.09;;;28.90;39.18
79150;BME280;68563;45.644;13.782;2023-06-26T07:58:49;100968.53;;;28.87;38.10
79150;BME280;68563;45.644;13.782;2023-06-26T08:01:14;100963.00;;;28.79;37.89
79150;BME280;68563;45.644;13.782;2023-06-26T08:03:39;100956.72;;;28.80;37.50
79150;BME280;68563;45.644;13.782;2023-06-26T08:06:05;100972.31;;;28.85;35.82
79150;BME280;68563;45.644;13.782;2023-06-26T08:08:31;100947.56;;;28.73;36.17
79150;BME280;68563;45.644;13.782;2023-06-26T08:10:56;100970.63;;;28.84;36.01
79150;BME280;68563;45.644;13.782;2023-06-26T08:13:21;100958.53;;;28.79;36.12
79150;BME280;68563;45.644;13.782;2023-06-26T08:15:47;100967.56;;;28.88;34.74
79150;BME280;68563;45.644;13.782;2023-06-26T08:18:13;100965.59;;;28.90;34.70
79150;BME280;68563;45.644;13.782;2023-06-26T08:20:39;100966.69;;;28.88;36.00
79150;BME280;68563;45.644;13.782;2023-06-26T08:23:11;100967.66;;;28.87;35.46
79150;BME280;68563;45.644;13.782;2023-06-26T08:25:36;100976.97;;;28.92;35.89
79150;BME280;68563;45.644;13.782;2023-06-26T08:28:02;100974.00;;;28.86;36.03
79150;BME280;68563;45.644;13.782;2023-06-26T08:30:28;100967.28;;;28.91;36.14
79150;BME280;68563;45.644;13.782;2023-06-26T08:32:56;100962.91;;;28.90;35.89
79150;BME280;68563;45.644;13.782;2023-06-26T08:35:22;100961.69;;;28.94;37.32
79150;BME280;68563;45.644;13.782;2023-06-26T08:37:47;100956.56;;;28.81;38.42
79150;BME280;68563;45.644;13.782;2023-06-26T08:40:17;100952.94;;;28.83;36.79
79150;BME280;68563;45.644;13.782;2023-06-26T08:42:43;100963.06;;;28.89;35.79
79150;BME280;68563;45.644;13.782;2023-06-26T08:45:09;100956.63;;;28.91;35.83
79150;BME280;68563;45.644;13.782;2023-06-26T08:47:35;100952.41;;;28.89;35.68
79150;BME280;68563;45.644;13.782;2023-06-26T08:50:13;100954.66;;;28.93;35.58
79150;BME280;68563;45.644;13.782;2023-06-26T08:52:57;100962.28;;;28.98;37.46
79150;BME280;68563;45.644;13.782;2023-06-26T08:55:31;100959.22;;;29.03;37.41
79150;BME280;68563;45.644;13.782;2023-06-26T08:57:57;100963.44;;;29.05;36.24
79150;BME280;68563;45.644;13.782;2023-06-26T09:00:23;100968.47;;;29.08;35.57
79150;BME280;68563;45.644;13.782;2023-06-26T09:02:48;100955.69;;;29.02;34.48
79150;BME280;68563;45.644;13.782;2023-06-26T09:05:14;100962.72;;;29.03;34.52
79150;BME280;68563;45.644;13.782;2023-06-26T09:07:40;100959.06;;;29.04;34.62
79150;BME280;68563;45.644;13.782;2023-06-26T09:10:06;100960.00;;;28.93;34.32
79150;BME280;68563;45.644;13.782;2023-06-26T09:12:32;100951.47;;;29.00;34.26
79150;BME280;68563;45.644;13.782;2023-06-26T09:14:57;100948.50;;;28.93;33.71
79150;BME280;68563;45.644;13.782;2023-06-26T09:17:25;100952.34;;;29.00;33.67
79150;BME280;68563;45.644;13.782;2023-06-26T09:19:54;100954.72;;;29.03;33.69
79150;BME280;68563;45.644;13.782;2023-06-26T09:22:19;100952.78;;;29.05;33.37
79150;BME280;68563;45.644;13.782;2023-06-26T09:24:45;100949.28;;;29.14;33.30
79150;BME280;68563;45.644;13.782;2023-06-26T09:27:11;100954.78;;;29.23;33.18
79150;BME280;68563;45.644;13.782;2023-06-26T09:29:37;100956.47;;;29.24;33.11
79150;BME280;68563;45.644;13.782;2023-06-26T09:32:03;100947.91;;;29.20;33.37
79150;BME280;68563;45.644;13.782;2023-06-26T09:34:32;100940.03;;;29.19;33.74
79150;BME280;68563;45.644;13.782;2023-06-26T09:36:59;100943.28;;;29.22;33.66
79150;BME280;68563;45.644;13.782;2023-06-26T09:39:30;100941.34;;;29.24;34.06
79150;BME280;68563;45.644;13.782;2023-06-26T09:41:55;100943.53;;;29.19;34.24
79150;BME280;68563;45.644;13.782;2023-06-26T09:44:22;100928.66;;;29.17;34.01
79150;BME280;68563;45.644;13.782;2023-06-26T09:46:47;100931.91;;;29.20;34.80
79150;BME280;68563;45.644;13.782;2023-06-26T09:49:13;100920.41;;;29.20;34.81
79150;BME280;68563;45.644;13.782;2023-06-26T09:51:40;100930.34;;;29.18;34.57
79150;BME280;68563;45.644;13.782;2023-06-26T09:54:06;100920.22;;;29.11;34.26
79150;BME280;68563;45.644;13.782;2023-06-26T09:56:32;100919.94;;;29.14;33.52
79150;BME280;68563;45.644;13.782;2023-06-26T09:59:00;100914.34;;;29.18;33.70
79150;BME280;68563;45.644;13.782;2023-06-26T10:01:29;100913.53;;;29.17;33.39
79150;BME280;68563;45.644;13.782;2023-06-26T10:03:55;100911.69;;;29.18;33.28
79150;BME280;68563;45.644;13.782;2023-06-26T10:08:51;100909.19;;;29.26;31.72
79150;BME280;68563;45.644;13.782;2023-06-26T10:11:20;100913.81;;;29.24;31.81
79150;BME280;68563;45.644;13.782;2023-06-26T10:13:49;100922.78;;;29.23;32.56
79150;BME280;68563;45.644;13.782;2023-06-26T10:16:26;100918.72;;;29.19;32.66
79150;BME280;68563;45.644;13.782;2023-06-26T10:19:00;100907.63;;;29.13;33.61
79150;BME280;68563;45.644;13.782;2023-06-26T10:21:29;100916.03;;;29.19;33.67
79150;BME280;68563;45.644;13.782;2023-06-26T10:23:56;100910.41;;;29.22;33.93
79150;BME280;68563;45.644;13.782;2023-06-26T10:26:22;100901.16;;;29.16;34.56
79150;BME280;68563;45.644;13.782;2023-06-26T10:28:50;100907.91;;;29.20;34.23
79150;BME280;68563;45.644;13.782;2023-06-26T10:31:21;100907.75;;;29.22;33.74
79150;BME280;68563;45.644;13.782;2023-06-26T10:33:49;100913.94;;;29.22;34.11
79150;BME280;68563;45.644;13.782;2023-06-26T10:36:20;100912.56;;;29.28;33.76
79150;BME280;68563;45.644;13.782;2023-06-26T10:41:19;100909.66;;;29.31;34.56
79150;BME280;68563;45.644;13.782;2023-06-26T10:43:45;100900.31;;;29.25;33.83
79150;BME280;68563;45.644;13.782;2023-06-26T10:46:15;100903.72;;;29.27;34.53
79150;BME280;68563;45.644;13.782;2023-06-26T10:48:59;100911.34;;;29.32;34.90
79150;BME280;68563;45.644;13.782;2023-06-26T10:51:26;100910.34;;;29.33;34.59
79150;BME280;68563;45.644;13.782;2023-06-26T10:53:55;100899.41;;;29.36;34.64
79150;BME280;68563;45.644;13.782;2023-06-26T10:56:40;100901.41;;;29.44;35.38
79150;BME280;68563;45.644;13.782;2023-06-26T10:59:20;100901.97;;;29.48;35.58
79150;BME280;68563;45.644;13.782;2023-06-26T11:02:06;100905.19;;;29.51;35.70
79150;BME280;68563;45.644;13.782;2023-06-26T11:04:45;100897.59;;;29.47;36.36
79150;BME280;68563;45.644;13.782;2023-06-26T11:07:21;100901.81;;;29.49;36.77
79150;BME280;68563;45.644;13.782;2023-06-26T11:09:56;100896.22;;;29.52;37.58
79150;BME280;68563;45.644;13.782;2023-06-26T11:12:44;100892.84;;;29.50;37.69
79150;BME280;68563;45.644;13.782;2023-06-26T11:15:10;100894.38;;;29.53;37.77
79150;BME280;68563;45.644;13.782;2023-06-26T11:17:37;100892.44;;;29.55;37.20
79150;BME280;68563;45.644;13.782;2023-06-26T11:20:10;100901.25;;;29.55;36.69
79150;BME280;68563;45.644;13.782;2023-06-26T11:22:37;100896.63;;;29.57;36.58
79150;BME280;68563;45.644;13.782;2023-06-26T11:25:04;100893.41;;;29.54;36.85
79150;BME280;68563;45.644;13.782;2023-06-26T11:30:06;100896.50;;;29.59;36.88
79150;BME280;68563;45.644;13.782;2023-06-26T11:32:32;100895.50;;;29.60;37.00
79150;BME280;68563;45.644;13.782;2023-06-26T11:34:58;100886.13;;;29.56;37.85
79150;BME280;68563;45.644;13.782;2023-06-26T11:37:24;100889.88;;;29.63;38.07
79150;BME280;68563;45.644;13.782;2023-06-26T11:39:50;100888.22;;;29.62;37.59
79150;BME280;68563;45.644;13.782;2023-06-26T11:42:17;100882.19;;;29.60;37.83
79150;BME280;68563;45.644;13.782;2023-06-26T11:44:43;100881.03;;;29.63;36.62
79150;BME280;68563;45.644;13.782;2023-06-26T11:47:16;100879.50;;;29.60;37.10
79150;BME280;68563;45.644;13.782;2023-06-26T11:49:46;100884.00;;;29.59;37.54
79150;BME280;68563;45.644;13.782;2023-06-26T11:52:12;100886.69;;;29.59;37.37
79150;BME280;68563;45.644;13.782;2023-06-26T11:54:38;100889.19;;;29.61;37.22
79150;BME280;68563;45.644;13.782;2023-06-26T11:57:04;100879.34;;;29.61;38.52
79150;BME280;68563;45.644;13.782;2023-06-26T11:59:38;100880.91;;;29.64;39.68
79150;BME280;68563;45.644;13.782;2023-06-26T12:02:14;100880.47;;;29.59;39.65
79150;BME280;68563;45.644;13.782;2023-06-26T12:04:42;100885.81;;;29.59;40.99
79150;BME280;68563;45.644;13.782;2023-06-26T12:07:09;100880.47;;;29.59;41.59
79150;BME280;68563;45.644;13.782;2023-06-26T12:09:40;100874.88;;;29.62;41.62
79150;BME280;68563;45.644;13.782;2023-06-26T12:12:06;100872.34;;;29.60;42.08
79150;BME280;68563;45.644;13.782;2023-06-26T12:14:33;100871.19;;;29.63;42.26
79150;BME280;68563;45.644;13.782;2023-06-26T12:17:09;100881.03;;;29.63;41.31
79150;BME280;68563;45.644;13.782;2023-06-26T12:19:37;100876.53;;;29.63;39.50
79150;BME280;68563;45.644;13.782;2023-06-26T12:22:07;100872.91;;;29.64;39.54
79150;BME280;68563;45.644;13.782;2023-06-26T12:24:35;100865.88;;;29.63;39.67
79150;BME280;68563;45.644;13.782;2023-06-26T12:27:01;100872.63;;;29.67;39.55
79150;BME280;68563;45.644;13.782;2023-06-26T12:29:33;100864.47;;;29.69;40.19
79150;BME280;68563;45.644;13.782;2023-06-26T12:31:59;100858.00;;;29.71;39.84
79150;BME280;68563;45.644;13.782;2023-06-26T12:34:47;100872.47;;;29.79;39.97
79150;BME280;68563;45.644;13.782;2023-06-26T12:37:13;100875.16;;;29.79;40.13
79150;BME280;68563;45.644;13.782;2023-06-26T12:39:47;100865.03;;;29.72;40.36
79150;BME280;68563;45.644;13.782;2023-06-26T12:42:17;100867.16;;;29.69;41.23
79150;BME280;68563;45.644;13.782;2023-06-26T12:44:43;100868.13;;;29.68;40.99
79150;BME280;68563;45.644;13.782;2023-06-26T12:47:08;100869.81;;;29.69;40.43
79150;BME280;68563;45.644;13.782;2023-06-26T12:49:36;100862.22;;;29.64;39.93
79150;BME280;68563;45.644;13.782;2023-06-26T12:52:04;100867.16;;;29.69;39.68
79150;BME280;68563;45.644;13.782;2023-06-26T12:54:30;100867.28;;;29.67;40.61
79150;BME280;68563;45.644;13.782;2023-06-26T12:56:57;100865.03;;;30.79;38.75